Raleigh, NC (27603)

2:01 AM EDT on November 01, 2014 (GMT -0400)
Colonial Heights | Change Station
CLOSE
Current Station
Personal Weather Station
Location: Raleigh, NC
Elevation: 305 ft
Nearby Weather Stations

Elev 305 ft 35.69 °N, 78.67 °W | Updated 60 seconds ago

Partly Cloudy
Partly Cloudy
49.1 °F
Feels Like 49 °F
N
2.0
Wind Variable Wind from WNW
Gusts 3.0 mph

Today
High -- | Low -- °F
--% Chance of Precip.
Yesterday
High -- | Low -- °F
Precip. -- in
7:36 AM 6:19 PM
Waxing Gibbous, 63% visible
Pressure 29.76 in
Visibility 10.0 miles
Clouds Overcast 5000 ft
Windchill 49 °F
Dew Point 46 °F
Humidity 89%
Rainfall 0.00 in
Snow Depth Not available.
UV 0 out of 12
Pollen .10 out of 12
Air Quality Not available.
Flu Activity Not available.
METAR KRDU 010551Z VRB05KT 10SM OVC050 10/04 A2976 RMK AO2 PRESRR SLP078 T01000044 10117 20100 55006

More Conditions Fewer Conditions

Pressure 29.76 in
Visibility 10.0 miles
Clouds Overcast 5000 ft
Windchill 49 °F
Dew Point 46 °F
Humidity 89%
Rainfall 0.00 in
Snow Depth Not available.
UV 0 out of 12
Pollen .10 out of 12
Air Quality Not available.
Flu Activity Not available.
METAR KRDU 010551Z VRB05KT 10SM OVC050 10/04 A2976 RMK AO2 PRESRR SLP078 T01000044 10117 20100 55006

More Conditions Fewer Conditions

10-Day Weather Forecast

Almanac

Astronomy

Nov. 01, 2014 Rise Set
Actual Time
Civil Twilight
Nautical Twilight
Astronomical Twilight
Moon
Length of Visible Light
Length of Day
Tomorrow will be .
, % of the Moon is Illuminated

Today's Extremes

State Highs State Lows

Community

WunderPhotos

Upload Photos

1,766,862 photos uploaded!

WunderBlogs® & News

Nearby

Air Quality

  Air Quality AQ Index Pollutant
Not available.

Snow Depth

Station Depth Elevation

Earthquake Activity

City Distance Mag. Time & Date
Minimum magnitude displayed is 2.5.

Coastal Water Temperatures

Place Temperature

Nearby Weather Stations